Aérodrome :
LOGIN :

S'inscrire | Disclaimer

   EN    FR    IT 

 










Légende :    VFR   VFR Marginal   IFR   IFR Intensif   IFR Très Intensif
Visi : 
Plafond : 
>= 8 km
>= 3000ft
5 à 8 km
1000 à 3000 ft
1500m à 5 km
500 à 1000 ft
800 à 1500m
200 à 500 ft
< 800m
< 200 ft
Symboles :   Orages  Brouillard  Fortes neiges  Fortes précipitations  Vent > 20 kt
SIGMETs :   Divers  Orages  Givrage  Turbulence  Onde Orograph.  Cendres Volcan.






- Altitude de l'aérodrome : 278 ft
- Code IATA : RJK


LDRI - Rijeka

DERNIER METAR :
  • 280200Z 00000KT CAVOK 13/08 Q1026

METARs EXPIRÉS :
  • 280130Z VRB02KT CAVOK 12/07 Q1027
  • 280100Z 05005KT CAVOK 16/07 Q1027
  • 280030Z 03003KT 350V020 CAVOK 13/07 Q1027
  • 280000Z 08003KT CAVOK 14/07 Q1027
  • 272330Z VRB03KT CAVOK 17/06 Q1027

TAF TAF LDRI
Valide du 28 à 00h jusqu'au 29 à 00h UTC


272325Z 2800/2900 06006KT CAVOK TX23/2814Z TN12/2804Z
BECMG 2809/2811 28008KT
PROB30
TEMPO 2818/2821 35015G25KT TSRA FEW040CB
BECMG 2819/2821 06012KT



MET'MAP, la Météo Aéronautique d'un coup d'oeil ! - Copyright ORBIFLY Décembre 2007 - Disclaimer

ORBIFLY MET'MAP TEAM :

Programmation & Développement : Alexandra Zaïnal
Sur une idée originale de : Baudouin d'Aumeries
Assistance à la programmation : Marc-Olivier Méhu
Soutien technique & logistique : Manuel Goepfert

Contact : metmap@orbifly.com




SOURCES & CREDITS :

   NOAA